createdAt,value
2019-05-01T00:01:18.316Z,101213.86
2019-05-01T00:04:06.657Z,101213.11
2019-05-01T00:06:42.806Z,101204.41
2019-05-01T00:09:12.873Z,101204.13
2019-05-01T00:11:41.678Z,101201.56
2019-05-01T00:14:10.418Z,101204.38
2019-05-01T00:16:39.252Z,101200.94
2019-05-01T00:19:07.671Z,101193.92
2019-05-01T00:21:36.069Z,101200.62
2019-05-01T00:24:04.631Z,101194.16
2019-05-01T00:26:33.029Z,101191.43
2019-05-01T00:29:01.520Z,101189.70
2019-05-01T00:31:29.949Z,101188.81
2019-05-01T00:33:58.363Z,101181.73
2019-05-01T00:36:26.855Z,101186.25
2019-05-01T00:38:55.630Z,101181.59
2019-05-01T00:41:24.022Z,101178.84
2019-05-01T00:43:52.437Z,101179.08
2019-05-01T00:46:20.913Z,101180.13
2019-05-01T00:48:49.367Z,101184.45
2019-05-01T00:51:21.188Z,101175.36
2019-05-01T00:53:49.922Z,101170.70
2019-05-01T00:56:20.050Z,101169.48
2019-05-01T00:58:53.070Z,101169.42
2019-05-01T01:01:30.620Z,101176.08
2019-05-01T01:03:59.255Z,101175.63
2019-05-01T01:06:27.735Z,101173.58
2019-05-01T01:08:56.157Z,101172.90
2019-05-01T01:11:24.594Z,101179.14
2019-05-01T01:13:53.072Z,101179.20
2019-05-01T01:16:21.474Z,101172.59
2019-05-01T01:18:49.893Z,101171.63
2019-05-01T01:21:18.311Z,101171.22
2019-05-01T01:23:46.823Z,101171.38
2019-05-01T01:26:15.392Z,101166.63
2019-05-01T01:28:43.873Z,101163.62
2019-05-01T01:31:12.359Z,101166.94
2019-05-01T01:33:40.786Z,101170.16
2019-05-01T01:36:09.193Z,101168.55
2019-05-01T01:38:37.630Z,101163.89
2019-05-01T01:41:06.175Z,101161.16
2019-05-01T01:43:52.991Z,101156.36
2019-05-01T01:46:31.975Z,101155.25
2019-05-01T01:49:00.461Z,101147.35
2019-05-01T01:51:29.566Z,101149.61
2019-05-01T01:53:59.404Z,101144.05
2019-05-01T01:56:27.963Z,101145.16
2019-05-01T01:58:56.815Z,101137.84
2019-05-01T02:01:26.920Z,101136.18
2019-05-01T02:04:06.286Z,101143.38
2019-05-01T02:06:34.817Z,101152.23
2019-05-01T02:09:05.024Z,101144.73
2019-05-01T02:11:33.571Z,101147.17
2019-05-01T02:14:02.054Z,101147.94
2019-05-01T02:16:30.534Z,101145.63
2019-05-01T02:18:58.948Z,101140.69
2019-05-01T02:21:27.389Z,101139.63
2019-05-01T02:23:55.802Z,101143.99
2019-05-01T02:26:26.306Z,101142.48
2019-05-01T02:28:59.220Z,101141.55
2019-05-01T02:31:32.743Z,101140.38
2019-05-01T02:34:03.573Z,101142.68
2019-05-01T02:36:34.287Z,101136.59
2019-05-01T02:39:04.893Z,101129.84
2019-05-01T02:41:36.652Z,101133.75
2019-05-01T02:44:08.101Z,101129.73
2019-05-01T02:46:37.470Z,101120.88
2019-05-01T02:49:17.588Z,101130.31
2019-05-01T02:51:46.776Z,101121.44
2019-05-01T02:54:17.965Z,101127.17
2019-05-01T02:56:52.202Z,101125.90
2019-05-01T02:59:22.873Z,100817.42
2019-05-01T03:01:51.417Z,101115.37
2019-05-01T03:04:20.307Z,101115.14
2019-05-01T03:06:49.877Z,101121.33
2019-05-01T03:09:19.066Z,101111.98
2019-05-01T03:11:50.646Z,101116.45
2019-05-01T03:14:21.795Z,101124.02
2019-05-01T03:16:52.917Z,101121.80
2019-05-01T03:19:31.659Z,101119.81
2019-05-01T03:22:20.768Z,101122.53
2019-05-01T03:24:49.321Z,101112.48
2019-05-01T03:27:17.988Z,101110.27
2019-05-01T03:29:46.825Z,101117.17
2019-05-01T03:32:19.090Z,101109.21
2019-05-01T03:34:51.831Z,101117.56
2019-05-01T03:37:16.272Z,101116.36
2019-05-01T03:39:44.854Z,101114.34
2019-05-01T03:42:13.520Z,101115.36
2019-05-01T03:44:42.220Z,101119.34
2019-05-01T03:47:10.761Z,101114.31
2019-05-01T03:49:39.452Z,101113.36
2019-05-01T03:52:08.223Z,101111.34
2019-05-01T03:54:38.250Z,101109.41
2019-05-01T03:57:06.663Z,101109.65
2019-05-01T03:59:35.478Z,101104.99
2019-05-01T04:02:33.084Z,101104.55
2019-05-01T04:04:54.336Z,101102.81
2019-05-01T04:07:22.981Z,101101.67
2019-05-01T04:09:51.563Z,101100.11
2019-05-01T04:12:20.169Z,101105.64
2019-05-01T04:14:49.472Z,101104.30
2019-05-01T04:17:22.954Z,101103.05
2019-05-01T04:19:51.723Z,101095.91
2019-05-01T04:22:20.280Z,101106.12
2019-05-01T04:24:49.519Z,101105.64
2019-05-01T04:27:19.862Z,101096.41
2019-05-01T04:29:53.471Z,101098.17
2019-05-01T04:32:23.589Z,101095.01
2019-05-01T04:35:00.001Z,101097.21
2019-05-01T04:37:29.086Z,101103.34
2019-05-01T04:39:58.037Z,101102.58
2019-05-01T04:42:26.688Z,101099.23
2019-05-01T04:44:55.267Z,101106.06
2019-05-01T04:47:24.660Z,101106.95
2019-05-01T04:49:53.661Z,101104.02
2019-05-01T04:52:22.177Z,101104.52
2019-05-01T04:54:50.850Z,101096.09
2019-05-01T04:57:19.493Z,101101.97
2019-05-01T04:59:47.982Z,101105.52
2019-05-01T05:02:18.602Z,101103.50
2019-05-01T05:04:47.387Z,101101.46
2019-05-01T05:07:16.030Z,101098.11
2019-05-01T05:09:46.390Z,101099.16
2019-05-01T05:12:20.467Z,101097.50
2019-05-01T05:14:50.614Z,101105.78
2019-05-01T05:17:20.862Z,101100.44
2019-05-01T05:19:49.798Z,101100.20
2019-05-01T05:22:18.521Z,101105.16
2019-05-01T05:24:47.307Z,101099.47
2019-05-01T05:27:20.708Z,101099.23
2019-05-01T05:29:49.986Z,101103.58
2019-05-01T05:32:20.911Z,101103.95
2019-05-01T05:34:51.296Z,101105.78
2019-05-01T05:44:14.324Z,101115.06
2019-05-01T05:46:42.905Z,101113.20
2019-05-01T05:49:11.641Z,101116.66
2019-05-01T05:51:44.009Z,101117.09
2019-05-01T05:54:32.434Z,101106.41
2019-05-01T05:57:18.728Z,101105.86
2019-05-01T05:59:57.100Z,101106.44
2019-05-01T06:02:35.858Z,101104.17
2019-05-01T06:05:15.971Z,101110.03
2019-05-01T06:08:05.279Z,101115.09
2019-05-01T06:10:40.254Z,101110.72
2019-05-01T06:13:18.022Z,101110.20
2019-05-01T06:15:49.233Z,101108.09
2019-05-01T06:18:19.668Z,101111.62
2019-05-01T06:20:56.967Z,101111.48
2019-05-01T06:23:38.692Z,101112.92
2019-05-01T06:26:14.348Z,101112.13
2019-05-01T06:28:42.884Z,101108.55
2019-05-01T06:31:17.788Z,101109.55
2019-05-01T06:33:48.555Z,101110.86
2019-05-01T06:36:16.611Z,101114.58
2019-05-01T06:38:45.501Z,101112.13
2019-05-01T06:41:16.222Z,101119.81
2019-05-01T06:43:49.229Z,101123.86
2019-05-01T06:46:31.911Z,101129.06
2019-05-01T06:49:24.389Z,101127.83
2019-05-01T06:51:53.196Z,101135.04
2019-05-01T06:54:23.841Z,101135.55
2019-05-01T06:56:52.683Z,101132.14
2019-05-01T06:59:26.334Z,101131.55
2019-05-01T07:01:58.252Z,101127.66
2019-05-01T07:04:23.527Z,101132.91
2019-05-01T07:06:52.632Z,101125.97
2019-05-01T07:09:28.251Z,101131.59
2019-05-01T07:11:54.508Z,101137.97
2019-05-01T07:14:22.890Z,101131.14
2019-05-01T07:16:51.494Z,101133.06
2019-05-01T07:19:21.924Z,101134.89
2019-05-01T07:21:50.569Z,101139.15
2019-05-01T07:24:19.356Z,101133.30
2019-05-01T07:26:49.154Z,101131.93
2019-05-01T07:29:19.532Z,101135.37
2019-05-01T07:31:48.144Z,101139.81
2019-05-01T07:34:17.079Z,101143.58
2019-05-01T07:36:50.124Z,101138.09
2019-05-01T07:39:16.263Z,101133.11
2019-05-01T07:41:44.808Z,101136.23
2019-05-01T07:44:17.674Z,101136.43
2019-05-01T07:47:04.645Z,101142.08
2019-05-01T07:49:47.778Z,101144.84
2019-05-01T07:52:17.175Z,101142.33
2019-05-01T07:54:47.256Z,101144.77
2019-05-01T07:57:16.781Z,101144.69
2019-05-01T07:59:45.575Z,101142.42
2019-05-01T08:02:14.422Z,101144.39
2019-05-01T08:04:42.822Z,101153.02
2019-05-01T08:07:11.257Z,101146.80
2019-05-01T08:09:39.802Z,101143.95
2019-05-01T08:12:08.372Z,101136.31
2019-05-01T08:14:36.780Z,101144.80
2019-05-01T08:17:05.293Z,101134.48
2019-05-01T08:19:44.451Z,101139.88
2019-05-01T08:22:14.542Z,101137.39
2019-05-01T08:24:43.014Z,101142.63
2019-05-01T08:27:15.644Z,101138.89
2019-05-01T08:29:44.969Z,101142.77
2019-05-01T08:32:33.764Z,101143.30
2019-05-01T08:35:05.773Z,101141.73
2019-05-01T08:37:34.183Z,101142.25
2019-05-01T08:40:02.603Z,101144.95
2019-05-01T08:42:31.041Z,101144.70
2019-05-01T08:45:05.115Z,101144.86
2019-05-01T08:47:33.081Z,101141.00
2019-05-01T08:50:14.707Z,101146.75
2019-05-01T08:52:47.482Z,101147.35
2019-05-01T08:55:13.394Z,101145.78
2019-05-01T08:57:41.855Z,101154.03
2019-05-01T09:00:10.995Z,101150.20
2019-05-01T09:02:41.608Z,101151.56
2019-05-01T09:05:27.721Z,101150.22
2019-05-01T09:07:40.377Z,101143.62
2019-05-01T09:10:09.353Z,101145.56
2019-05-01T09:12:37.809Z,101138.17
2019-05-01T09:15:12.652Z,101146.84
2019-05-01T09:17:37.919Z,101144.73
2019-05-01T09:20:06.484Z,101147.18
2019-05-01T09:22:34.920Z,101137.41
2019-05-01T09:25:03.684Z,101140.68
2019-05-01T09:27:49.952Z,101129.38
2019-05-01T09:30:30.003Z,101135.34
2019-05-01T09:32:58.508Z,101132.21
2019-05-01T09:35:26.989Z,101132.86
2019-05-01T09:37:55.502Z,101134.03
2019-05-01T09:40:23.913Z,101131.16
2019-05-01T09:42:54.812Z,101128.67
2019-05-01T09:45:22.647Z,101136.14
2019-05-01T09:47:51.057Z,101136.17
2019-05-01T09:50:19.560Z,100962.16
2019-05-01T09:53:06.094Z,101132.15
2019-05-01T09:55:42.535Z,101131.16
2019-05-01T09:58:10.933Z,101133.00
2019-05-01T10:00:39.413Z,101128.72
2019-05-01T10:03:07.853Z,101127.77
2019-05-01T10:05:38.121Z,101125.95
2019-05-01T10:08:06.453Z,101121.49
2019-05-01T10:10:37.046Z,101120.16
2019-05-01T10:13:05.326Z,101110.74
2019-05-01T10:15:33.807Z,101108.48
2019-05-01T10:18:02.357Z,101107.20
2019-05-01T10:20:30.831Z,101114.52
2019-05-01T10:23:00.771Z,101112.23
2019-05-01T10:25:29.253Z,101112.55
2019-05-01T10:27:59.305Z,101106.18
2019-05-01T10:30:31.711Z,101100.90
2019-05-01T10:33:06.957Z,101097.51
2019-05-01T10:35:42.752Z,101099.31
2019-05-01T10:38:09.510Z,101097.30
2019-05-01T10:40:37.576Z,101092.73
2019-05-01T10:43:06.233Z,101093.75
2019-05-01T10:45:34.775Z,101083.94
2019-05-01T10:48:03.281Z,101083.23
2019-05-01T10:50:31.787Z,101081.37
2019-05-01T10:53:00.201Z,101079.45
2019-05-01T10:55:28.686Z,101076.16
2019-05-01T10:57:57.140Z,101077.93
2019-05-01T11:00:25.686Z,101071.59
2019-05-01T11:02:54.120Z,101072.70
2019-05-01T11:05:22.753Z,101065.36
2019-05-01T11:07:51.468Z,101068.61
2019-05-01T11:10:20.857Z,101064.99
2019-05-01T11:12:49.340Z,101064.05
2019-05-01T11:15:19.436Z,101068.88
2019-05-01T11:17:47.856Z,101065.52
2019-05-01T11:20:16.373Z,101061.81
2019-05-01T11:22:44.859Z,101055.27
2019-05-01T11:25:14.983Z,101049.41
2019-05-01T11:27:43.433Z,101056.48
2019-05-01T11:30:12.159Z,101054.53
2019-05-01T11:32:57.719Z,101048.28
2019-05-01T11:35:33.502Z,101052.48
2019-05-01T11:38:03.613Z,101048.50
2019-05-01T11:40:33.703Z,101044.44
2019-05-01T11:43:02.794Z,101047.31
2019-05-01T11:45:31.496Z,101045.31
2019-05-01T11:47:59.877Z,101047.09
2019-05-01T11:50:28.308Z,101046.25
2019-05-01T11:52:56.719Z,101036.45
2019-05-01T11:55:25.174Z,101043.35
2019-05-01T11:57:53.695Z,101040.20
2019-05-01T12:00:22.474Z,101031.38
2019-05-01T12:02:50.976Z,101034.78
2019-05-01T12:05:19.392Z,101029.33
2019-05-01T12:07:47.940Z,101026.77
2019-05-01T12:10:16.532Z,101020.59
2019-05-01T12:12:44.976Z,101016.13
2019-05-01T12:15:15.123Z,101017.58
2019-05-01T12:17:48.089Z,101016.73
2019-05-01T12:20:17.055Z,101007.94
2019-05-01T12:22:47.955Z,101003.31
2019-05-01T12:25:15.845Z,101008.53
2019-05-01T12:27:44.291Z,101011.61
2019-05-01T12:30:14.124Z,101004.99
2019-05-01T12:32:42.579Z,101011.30
2019-05-01T12:35:11.194Z,101002.31
2019-05-01T12:37:42.285Z,101003.11
2019-05-01T12:40:13.229Z,101000.08
2019-05-01T12:42:41.769Z,100994.67
2019-05-01T12:45:11.446Z,100996.69
2019-05-01T12:47:48.289Z,100988.97
2019-05-01T12:50:17.445Z,100989.39
2019-05-01T12:52:47.562Z,100986.41
2019-05-01T12:55:18.105Z,100983.52
2019-05-01T12:57:46.536Z,100976.36
2019-05-01T13:00:16.860Z,100985.28
2019-05-01T13:02:45.294Z,100980.52
2019-05-01T13:05:13.939Z,100982.31
2019-05-01T13:07:42.452Z,100973.73
2019-05-01T13:10:11.827Z,100975.45
2019-05-01T13:12:40.444Z,100971.17
2019-05-01T13:15:09.186Z,100965.38
2019-05-01T13:17:37.672Z,100971.38
2019-05-01T13:20:07.337Z,100970.53
2019-05-01T13:22:35.758Z,100971.97
2019-05-01T13:25:06.261Z,100963.23
2019-05-01T13:27:36.327Z,100956.92
2019-05-01T13:30:18.730Z,100954.48
2019-05-01T13:32:48.793Z,100948.33
2019-05-01T13:35:17.340Z,100948.75
2019-05-01T13:37:45.863Z,100946.84
2019-05-01T13:40:16.075Z,100935.78
2019-05-01T13:42:44.638Z,100931.09
2019-05-01T13:45:14.810Z,100932.84
2019-05-01T13:47:43.275Z,100934.61
2019-05-01T13:50:12.256Z,100921.69
2019-05-01T13:52:40.803Z,100926.81
2019-05-01T13:55:09.887Z,100926.41
2019-05-01T13:57:38.307Z,100920.52
2019-05-01T14:00:07.875Z,100915.91
2019-05-01T14:02:36.356Z,100906.47
2019-05-01T14:05:05.959Z,100909.50
2019-05-01T14:07:34.463Z,100910.38
2019-05-01T14:10:02.900Z,100902.77
2019-05-01T14:12:31.324Z,100899.59
2019-05-01T14:14:59.743Z,100888.55
2019-05-01T14:17:28.192Z,100881.65
2019-05-01T14:20:00.809Z,100877.78
2019-05-01T14:22:33.937Z,100876.86
2019-05-01T14:25:04.103Z,100870.87
2019-05-01T14:27:32.552Z,100867.00
2019-05-01T14:30:00.983Z,100863.50
2019-05-01T14:32:29.419Z,100849.72
2019-05-01T14:34:57.851Z,100858.28
2019-05-01T14:37:29.915Z,100853.41
2019-05-01T14:39:56.475Z,100851.55
2019-05-01T14:42:24.880Z,100851.29
2019-05-01T14:44:53.381Z,100850.53
2019-05-01T14:47:21.812Z,100849.69
2019-05-01T14:49:50.292Z,100850.13
2019-05-01T14:52:18.726Z,100851.48
2019-05-01T14:54:47.214Z,100845.47
2019-05-01T14:57:15.622Z,100840.34
2019-05-01T14:59:44.070Z,100839.91
2019-05-01T15:02:12.676Z,100835.66
2019-05-01T15:04:41.075Z,100835.62
2019-05-01T15:07:11.224Z,100828.73
2019-05-01T15:09:39.764Z,100822.66
2019-05-01T15:12:09.615Z,100822.25
2019-05-01T15:14:39.678Z,100823.53
2019-05-01T15:17:09.767Z,100817.97
2019-05-01T15:19:39.843Z,100821.38
2019-05-01T15:22:08.253Z,100813.71
2019-05-01T15:24:37.074Z,100813.64
2019-05-01T15:27:05.545Z,100804.20
2019-05-01T15:29:33.972Z,100798.98
2019-05-01T15:32:02.407Z,100803.66
2019-05-01T15:34:30.822Z,100800.58
2019-05-01T15:36:59.245Z,100799.28
2019-05-01T15:39:29.348Z,100799.30
2019-05-01T15:41:59.460Z,100797.22
2019-05-01T15:44:32.914Z,100798.00
2019-05-01T15:47:01.338Z,100797.00
2019-05-01T15:49:29.769Z,100791.02
2019-05-01T15:51:58.187Z,100791.02
2019-05-01T15:54:26.619Z,100781.14
2019-05-01T15:56:55.137Z,100783.39
2019-05-01T15:59:23.610Z,100780.28
2019-05-01T16:01:52.084Z,100781.12
2019-05-01T16:04:20.503Z,100782.02
2019-05-01T16:06:48.968Z,100784.12
2019-05-01T16:09:17.464Z,100776.80
2019-05-01T16:12:03.705Z,100769.39
2019-05-01T16:14:32.257Z,100771.19
2019-05-01T16:17:00.734Z,100759.63
2019-05-01T16:19:29.186Z,100759.39
2019-05-01T16:21:57.638Z,100761.65
2019-05-01T16:24:26.064Z,100772.14
2019-05-01T16:26:54.491Z,100756.30
2019-05-01T16:29:22.979Z,100756.67
2019-05-01T16:31:51.480Z,100752.80
2019-05-01T16:34:19.914Z,100749.73
2019-05-01T16:36:48.401Z,100752.70
2019-05-01T16:39:24.639Z,100746.34
2019-05-01T16:41:53.183Z,100742.88
2019-05-01T16:44:21.626Z,100743.88
2019-05-01T16:46:50.058Z,100735.25
2019-05-01T16:49:18.542Z,100735.60
2019-05-01T16:51:47.227Z,100737.84
2019-05-01T16:54:15.627Z,100739.19
2019-05-01T16:56:44.108Z,100735.34
2019-05-01T16:59:12.547Z,100730.67
2019-05-01T17:01:48.598Z,100727.15
2019-05-01T17:04:18.747Z,100728.52
2019-05-01T17:07:05.040Z,100720.97
2019-05-01T17:09:52.838Z,100727.45
2019-05-01T17:12:22.967Z,100722.17
2019-05-01T17:14:51.374Z,100718.55
2019-05-01T17:17:24.682Z,100720.41
2019-05-01T17:19:53.133Z,100711.95
2019-05-01T17:22:21.628Z,100711.89
2019-05-01T17:24:50.140Z,100708.08
2019-05-01T17:27:18.572Z,100700.79
2019-05-01T17:29:46.982Z,100704.30
2019-05-01T17:32:16.975Z,100701.75
2019-05-01T17:34:45.489Z,100704.02
2019-05-01T17:37:13.921Z,100704.55
2019-05-01T17:39:42.605Z,100701.97
2019-05-01T17:42:11.046Z,100705.80
2019-05-01T17:44:39.675Z,100701.92
2019-05-01T17:47:08.184Z,100704.53
2019-05-01T17:49:41.054Z,100708.37
2019-05-01T17:52:06.903Z,100706.66
2019-05-01T17:54:35.363Z,100702.03
2019-05-01T17:57:03.870Z,100711.57
2019-05-01T17:59:32.299Z,100709.43
2019-05-01T18:02:10.066Z,100706.00
2019-05-01T18:04:55.744Z,100699.11
2019-05-01T18:07:28.742Z,100701.30
2019-05-01T18:09:55.704Z,100691.42
2019-05-01T18:12:28.578Z,100694.41
2019-05-01T18:14:55.438Z,100693.96
2019-05-01T18:17:24.113Z,100697.00
2019-05-01T18:19:52.578Z,100700.45
2019-05-01T18:22:38.989Z,100700.45
2019-05-01T18:25:23.587Z,100697.03
2019-05-01T18:27:59.228Z,100699.64
2019-05-01T18:30:29.390Z,100697.12
2019-05-01T18:32:57.815Z,100701.88
2019-05-01T18:35:26.236Z,100695.88
2019-05-01T18:38:06.341Z,100693.77
2019-05-01T18:40:34.078Z,100695.92
2019-05-01T18:43:02.727Z,100696.38
2019-05-01T18:45:34.320Z,100695.53
2019-05-01T18:48:02.767Z,100692.55
2019-05-01T18:50:31.189Z,100690.00
2019-05-01T18:52:59.614Z,100692.98
2019-05-01T18:55:30.383Z,100691.70
2019-05-01T18:57:58.290Z,100690.41
2019-05-01T19:00:26.801Z,100685.28
2019-05-01T19:02:55.207Z,100694.29
2019-05-01T19:05:23.741Z,100694.28
2019-05-01T19:07:52.399Z,100694.69
2019-05-01T19:10:20.962Z,100699.41
2019-05-01T19:12:49.457Z,100694.23
2019-05-01T19:15:18.024Z,100695.09
2019-05-01T19:17:46.622Z,100695.95
2019-05-01T19:20:15.442Z,100698.05
2019-05-01T19:22:43.938Z,100695.48
2019-05-01T19:25:16.047Z,100693.73
2019-05-01T19:27:42.895Z,100699.28
2019-05-01T19:30:14.958Z,100698.42
2019-05-01T19:32:42.350Z,100697.57
2019-05-01T19:35:11.034Z,100690.25
2019-05-01T19:37:39.571Z,100698.78
2019-05-01T19:40:09.038Z,100691.08
2019-05-01T19:42:40.029Z,100688.48
2019-05-01T19:45:07.961Z,100693.12
2019-05-01T19:47:36.408Z,100690.55
2019-05-01T19:50:09.499Z,100687.92
2019-05-01T19:52:39.869Z,100692.19
2019-05-01T19:55:08.648Z,100690.91
2019-05-01T19:57:37.241Z,100687.48
2019-05-01T20:00:08.245Z,100689.92
2019-05-01T20:02:38.391Z,100694.97
2019-05-01T20:05:11.054Z,100689.81
2019-05-01T20:07:38.838Z,100694.01
2019-05-01T20:10:08.047Z,100691.84
2019-05-01T20:12:36.493Z,100685.80
2019-05-01T20:15:06.761Z,100689.71
2019-05-01T20:17:35.663Z,100690.91
2019-05-01T20:20:06.437Z,100690.44
2019-05-01T20:22:34.930Z,100690.42
2019-05-01T20:25:03.491Z,100686.92
2019-05-01T20:27:31.921Z,100683.16
2019-05-01T20:30:00.343Z,100688.60
2019-05-01T20:32:28.869Z,100685.56
2019-05-01T20:34:59.343Z,100685.52
2019-05-01T20:37:27.449Z,100683.88
2019-05-01T20:39:55.951Z,100681.33
2019-05-01T20:42:24.399Z,100680.83
2019-05-01T20:45:03.965Z,100683.34
2019-05-01T20:47:34.448Z,100683.19
2019-05-01T20:49:53.385Z,100678.44
2019-05-01T20:52:21.868Z,100682.26
2019-05-01T20:54:50.341Z,100682.80
2019-05-01T20:57:26.442Z,100679.36
2019-05-01T20:59:54.892Z,100683.66
2019-05-01T21:02:23.438Z,100684.73
2019-05-01T21:04:53.551Z,100646.22
2019-05-01T21:07:23.615Z,100685.92
2019-05-01T21:09:57.883Z,100684.37
2019-05-01T21:12:23.971Z,100679.15
2019-05-01T21:14:52.377Z,100684.48
2019-05-01T21:17:20.799Z,100679.48
2019-05-01T21:19:49.242Z,100680.95
2019-05-01T21:22:17.735Z,100679.98
2019-05-01T21:24:46.164Z,100682.08
2019-05-01T21:27:14.560Z,100679.12
2019-05-01T21:29:44.538Z,100681.64
2019-05-01T21:32:13.604Z,100673.48
2019-05-01T21:34:43.547Z,100672.08
2019-05-01T21:37:12.132Z,100676.19
2019-05-01T21:39:40.550Z,100675.69
2019-05-01T21:42:11.627Z,100670.49
2019-05-01T21:44:39.163Z,100675.11
2019-05-01T21:47:07.573Z,100672.54
2019-05-01T21:49:36.010Z,100670.75
2019-05-01T21:52:07.298Z,100667.72
2019-05-01T21:54:35.066Z,100674.91
2019-05-01T21:57:03.630Z,100673.14
2019-05-01T21:59:32.097Z,100666.31
2019-05-01T22:02:00.645Z,100665.39
2019-05-01T22:04:31.928Z,100671.20
2019-05-01T22:06:59.320Z,100666.80
2019-05-01T22:09:27.888Z,100671.47
2019-05-01T22:11:56.480Z,100675.81
2019-05-01T22:14:31.195Z,100668.48
2019-05-01T22:17:00.478Z,100670.70
2019-05-01T22:19:29.661Z,100666.36
2019-05-01T22:22:05.634Z,100669.31
2019-05-01T22:24:47.494Z,100666.53
2019-05-01T22:27:23.570Z,100667.35
2019-05-01T22:29:53.664Z,100669.91
2019-05-01T22:32:23.732Z,100666.19
2019-05-01T22:34:53.903Z,100664.91
2019-05-01T22:37:22.465Z,100659.78
2019-05-01T22:39:55.691Z,100662.58
2019-05-01T22:42:24.106Z,100675.30
2019-05-01T22:44:52.611Z,100676.03
2019-05-01T22:47:21.049Z,100668.45
2019-05-01T22:49:49.581Z,100658.51
2019-05-01T22:52:18.029Z,100661.41
2019-05-01T22:54:48.884Z,100657.43
2019-05-01T22:57:18.346Z,100661.50
2019-05-01T22:59:47.159Z,100658.24
2019-05-01T23:02:17.420Z,100653.08
2019-05-01T23:04:48.335Z,100650.45
2019-05-01T23:07:16.845Z,100651.29
2019-05-01T23:09:46.388Z,100650.72
2019-05-01T23:12:14.892Z,100650.57
2019-05-01T23:14:44.538Z,100637.11
2019-05-01T23:17:14.860Z,100643.08
2019-05-01T23:19:43.355Z,100635.42
2019-05-01T23:22:11.798Z,100639.33
2019-05-01T23:24:40.258Z,100638.52
2019-05-01T23:27:08.847Z,100636.75
2019-05-01T23:29:37.441Z,100631.98
2019-05-01T23:32:06.483Z,100633.66
2019-05-01T23:34:35.621Z,100632.52
2019-05-01T23:37:04.247Z,100630.89
2019-05-01T23:39:39.743Z,100625.70
2019-05-01T23:42:02.926Z,100631.39
2019-05-01T23:44:31.342Z,100624.63
2019-05-01T23:46:59.864Z,100621.24
2019-05-01T23:49:28.322Z,100623.55
2019-05-01T23:51:58.533Z,100623.23
2019-05-01T23:54:27.013Z,100623.28
2019-05-01T23:56:55.432Z,100621.38
2019-05-01T23:59:23.860Z,100618.72
